createdAt,value
2022-09-28T00:01:16.769Z,7.14
2022-09-28T00:03:45.143Z,7.16
2022-09-28T00:06:13.805Z,7.12
2022-09-28T00:08:40.808Z,7.09
2022-09-28T00:11:08.535Z,7.09
2022-09-28T00:13:35.296Z,7.07
2022-09-28T00:16:17.205Z,7.01
2022-09-28T00:18:45.584Z,7.01
2022-09-28T00:21:15.504Z,6.95
2022-09-28T00:24:01.379Z,6.91
2022-09-28T00:26:30.045Z,6.87
2022-09-28T00:28:59.573Z,6.81
2022-09-28T00:31:29.311Z,6.78
2022-09-28T00:34:00.253Z,6.69
2022-09-28T00:36:32.143Z,6.73
2022-09-28T00:38:59.862Z,6.70
2022-09-28T00:41:27.977Z,6.66
2022-09-28T00:44:15.163Z,6.66
2022-09-28T00:46:42.063Z,6.68
2022-09-28T00:49:14.964Z,6.70
2022-09-28T00:51:44.535Z,6.66
2022-09-28T00:54:12.070Z,6.55
2022-09-28T00:56:42.127Z,6.53
2022-09-28T00:59:09.754Z,6.59
2022-09-28T01:01:37.290Z,6.61
2022-09-28T01:04:04.980Z,6.63
2022-09-28T01:06:34.884Z,6.67
2022-09-28T01:09:10.541Z,6.64
2022-09-28T01:11:39.407Z,6.64
2022-09-28T01:14:10.225Z,6.67
2022-09-28T01:16:48.834Z,6.66
2022-09-28T01:19:51.394Z,6.69
2022-09-28T01:22:36.661Z,6.73
2022-09-28T01:25:25.130Z,6.77
2022-09-28T01:27:59.859Z,6.80
2022-09-28T01:30:26.749Z,6.80
2022-09-28T01:33:05.209Z,6.83
2022-09-28T01:35:41.017Z,6.85
2022-09-28T01:38:10.614Z,6.86
2022-09-28T01:40:37.716Z,6.88
2022-09-28T01:43:09.627Z,6.91
2022-09-28T01:45:44.222Z,6.92
2022-09-28T01:48:14.056Z,6.89
2022-09-28T01:50:43.075Z,6.90
2022-09-28T01:53:21.566Z,6.85
2022-09-28T01:55:53.435Z,6.87
2022-09-28T01:59:12.253Z,6.89
2022-09-28T02:01:46.901Z,6.87
2022-09-28T02:04:21.395Z,6.83
2022-09-28T02:06:54.150Z,6.84
2022-09-28T02:09:33.691Z,6.84
2022-09-28T02:12:06.232Z,6.89
2022-09-28T02:14:37.154Z,6.89
2022-09-28T02:17:04.176Z,6.94
2022-09-28T02:19:32.999Z,6.94
2022-09-28T02:22:14.684Z,6.98
2022-09-28T02:24:56.182Z,6.97
2022-09-28T02:27:25.612Z,6.97
2022-09-28T02:29:52.266Z,6.96
2022-09-28T02:32:20.214Z,6.97
2022-09-28T07:17:32.252Z,7.21
2022-09-28T07:20:07.737Z,7.25
2022-09-28T07:22:43.432Z,7.27
2022-09-28T07:25:10.561Z,7.29
2022-09-28T07:27:37.295Z,7.35
2022-09-28T07:30:07.563Z,7.39
2022-09-28T07:32:37.446Z,7.44
2022-09-28T07:35:09.286Z,7.49
2022-09-28T07:37:36.431Z,7.55
2022-09-28T07:40:23.372Z,7.62
2022-09-28T07:42:50.533Z,7.66
2022-09-28T07:45:18.047Z,7.74
2022-09-28T07:47:45.916Z,7.82
2022-09-28T07:50:13.043Z,7.72
2022-09-28T07:52:39.622Z,7.80
2022-09-28T07:55:07.508Z,7.82
2022-09-28T07:57:34.861Z,7.75
2022-09-28T08:00:02.407Z,7.64
2022-09-28T08:02:29.060Z,7.56
2022-09-28T08:04:56.453Z,7.54
2022-09-28T08:07:25.665Z,7.59
2022-09-28T08:09:52.351Z,7.58
2022-09-28T08:12:19.774Z,7.50
2022-09-28T08:14:47.449Z,7.56
2022-09-28T08:17:14.049Z,7.63
2022-09-28T08:19:59.292Z,7.67
2022-09-28T08:22:25.883Z,7.77
2022-09-28T08:24:52.506Z,7.77
2022-09-28T08:27:19.028Z,7.79
2022-09-28T08:29:45.585Z,7.76
2022-09-28T08:32:12.174Z,7.85
2022-09-28T08:34:40.681Z,7.95
2022-09-28T08:37:12.577Z,8.01
2022-09-28T08:39:39.309Z,8.01
2022-09-28T08:42:31.725Z,8.05
2022-09-28T08:45:07.245Z,8.12
2022-09-28T08:48:03.995Z,8.20
2022-09-28T08:50:33.087Z,8.19
2022-09-28T08:53:16.350Z,8.29
2022-09-28T08:55:45.301Z,8.28
2022-09-28T08:58:15.263Z,8.21
2022-09-28T09:00:49.846Z,8.34
2022-09-28T09:03:20.902Z,8.47
2022-09-28T09:06:20.474Z,8.54
2022-09-28T09:09:02.943Z,8.50
2022-09-28T09:11:44.542Z,8.68
2022-09-28T09:14:47.842Z,8.68
2022-09-28T09:17:38.863Z,8.72
2022-09-28T09:20:15.426Z,8.83
2022-09-28T09:22:58.921Z,8.92
2022-09-28T09:25:38.274Z,8.92
2022-09-28T09:28:29.410Z,8.89
2022-09-28T09:31:03.009Z,8.87
2022-09-28T09:33:35.675Z,8.80
2022-09-28T09:36:02.316Z,8.68
2022-09-28T09:38:37.857Z,8.75
2022-09-28T09:43:44.695Z,8.84
2022-09-28T09:46:31.797Z,8.93
2022-09-28T09:49:06.702Z,9.00
2022-09-28T09:51:52.760Z,9.00
2022-09-28T09:54:27.321Z,9.06
2022-09-28T09:57:03.754Z,9.00
2022-09-28T09:59:35.160Z,8.99
2022-09-28T10:02:12.564Z,8.97
2022-09-28T10:04:44.568Z,9.06
2022-09-28T10:07:20.972Z,9.03
2022-09-28T10:09:49.921Z,8.92
2022-09-28T10:12:20.819Z,8.90
2022-09-28T10:14:47.455Z,8.96
2022-09-28T10:17:19.820Z,9.00
2022-09-28T10:19:46.552Z,9.05
2022-09-28T10:22:22.882Z,9.19
2022-09-28T10:24:53.152Z,9.22
2022-09-28T10:27:27.726Z,9.42
2022-09-28T10:30:10.888Z,9.59
2022-09-28T10:32:41.597Z,9.56
2022-09-28T10:35:18.723Z,9.69
2022-09-28T10:37:55.884Z,9.73
2022-09-28T10:40:45.852Z,9.63
2022-09-28T10:43:18.928Z,9.67
2022-09-28T10:45:46.071Z,9.70
2022-09-28T10:48:20.338Z,9.47
2022-09-28T10:51:06.137Z,9.51
2022-09-28T10:53:34.813Z,9.40
2022-09-28T10:56:08.170Z,9.33
2022-09-28T10:58:40.653Z,8.95
2022-09-28T11:01:15.204Z,8.89
2022-09-28T11:03:52.282Z,8.93
2022-09-28T11:06:31.064Z,8.89
2022-09-28T11:09:03.339Z,9.01
2022-09-28T11:11:31.602Z,9.14
2022-09-28T11:14:04.185Z,9.33
2022-09-28T11:16:33.821Z,9.38
2022-09-28T11:19:23.324Z,9.49
2022-09-28T11:21:49.752Z,9.61
2022-09-28T11:24:19.042Z,9.65
2022-09-28T11:26:49.612Z,9.83
2022-09-28T11:29:41.750Z,9.93
2022-09-28T11:32:13.691Z,10.03
2022-09-28T11:35:02.164Z,9.89
2022-09-28T11:37:37.396Z,9.90
2022-09-28T11:40:16.923Z,9.81
2022-09-28T11:42:46.466Z,9.79
2022-09-28T11:45:31.736Z,9.61
2022-09-28T11:48:19.120Z,9.72
2022-09-28T11:50:48.794Z,9.64
2022-09-28T11:53:27.940Z,9.52
2022-09-28T11:56:08.855Z,9.50
2022-09-28T11:58:42.704Z,9.25
2022-09-28T12:01:18.707Z,9.03
2022-09-28T12:03:52.943Z,8.72
2022-09-28T12:06:31.282Z,8.53
2022-09-28T12:09:19.863Z,8.42
2022-09-28T12:11:52.316Z,8.30
2022-09-28T12:14:26.390Z,8.55
2022-09-28T12:17:11.397Z,8.73
2022-09-28T12:19:51.870Z,9.35
2022-09-28T12:22:30.061Z,9.55
2022-09-28T12:24:58.133Z,9.37
2022-09-28T12:27:31.527Z,9.24
2022-09-28T12:30:21.173Z,9.34
2022-09-28T12:33:15.469Z,9.41
2022-09-28T12:36:03.009Z,9.33
2022-09-28T12:39:14.714Z,9.43
2022-09-28T12:41:52.301Z,9.46
2022-09-28T12:44:35.390Z,9.45
2022-09-28T12:47:14.801Z,9.49
2022-09-28T12:52:53.488Z,9.65
2022-09-28T12:55:20.158Z,9.63
2022-09-28T12:58:02.113Z,9.65
2022-09-28T13:01:02.460Z,9.39
2022-09-28T13:03:47.706Z,9.39
2022-09-28T13:06:29.098Z,9.39
2022-09-28T13:08:58.515Z,9.36
2022-09-28T13:11:38.698Z,9.51
2022-09-28T13:14:38.508Z,9.65
2022-09-28T13:17:31.410Z,9.65
2022-09-28T13:20:05.464Z,9.62
2022-09-28T13:22:55.131Z,9.50
2022-09-28T13:25:25.541Z,9.57
2022-09-28T13:28:03.962Z,9.60
2022-09-28T13:30:34.049Z,9.63
2022-09-28T13:33:04.090Z,9.54
2022-09-28T13:35:32.166Z,9.20
2022-09-28T13:38:17.517Z,8.72
2022-09-28T13:41:06.083Z,8.43
2022-09-28T13:44:03.398Z,8.20
2022-09-28T13:46:51.905Z,8.21
2022-09-28T13:49:26.905Z,8.23
2022-09-28T13:51:59.590Z,8.14
2022-09-28T13:54:50.501Z,8.21
2022-09-28T13:57:47.204Z,8.24
2022-09-28T14:00:29.541Z,8.29
2022-09-28T14:03:04.401Z,8.35
2022-09-28T14:06:03.511Z,8.37
2022-09-28T14:08:38.449Z,8.45
2022-09-28T14:11:34.931Z,8.52
2022-09-28T14:14:07.562Z,8.51
2022-09-28T14:16:44.440Z,8.49
2022-09-28T14:19:24.449Z,8.47
2022-09-28T14:22:00.480Z,8.42
2022-09-28T14:24:58.106Z,8.30
2022-09-28T14:27:36.712Z,8.35
2022-09-28T14:30:16.194Z,8.38
2022-09-28T14:32:48.185Z,8.42
2022-09-28T14:35:31.835Z,8.66
2022-09-28T14:38:40.622Z,8.96
2022-09-28T14:41:13.825Z,9.12
2022-09-28T14:43:46.459Z,9.08
2022-09-28T14:46:17.098Z,9.05
2022-09-28T14:48:50.307Z,9.06
2022-09-28T14:51:40.113Z,9.07
2022-09-28T14:54:12.469Z,9.10
2022-09-28T14:56:45.586Z,9.13
2022-09-28T14:59:17.330Z,9.12
2022-09-28T15:01:54.113Z,9.17
2022-09-28T15:04:23.039Z,9.23
2022-09-28T15:06:51.665Z,9.28
2022-09-28T15:09:32.987Z,9.11
2022-09-28T15:12:16.200Z,8.99
2022-09-28T15:14:51.726Z,8.94
2022-09-28T15:17:40.201Z,8.89
2022-09-28T15:20:23.305Z,8.85
2022-09-28T15:22:57.449Z,8.85
2022-09-28T15:25:27.513Z,8.89
2022-09-28T15:27:56.612Z,8.93
2022-09-28T15:30:26.238Z,8.80
2022-09-28T15:32:56.726Z,8.88
2022-09-28T15:35:27.846Z,8.93
2022-09-28T15:37:55.470Z,8.92
2022-09-28T15:40:27.934Z,8.99
2022-09-28T15:42:59.059Z,9.06
2022-09-28T15:45:35.151Z,9.11
2022-09-28T15:48:40.995Z,9.15
2022-09-28T15:51:12.827Z,9.18
2022-09-28T15:53:58.216Z,9.07
2022-09-28T15:56:26.140Z,9.11
2022-09-28T15:59:31.996Z,9.09
2022-09-28T16:02:22.712Z,9.09
2022-09-28T16:04:54.124Z,9.09
2022-09-28T16:07:23.369Z,9.07
2022-09-28T16:10:00.740Z,9.03
2022-09-28T16:12:54.193Z,8.99
2022-09-28T16:15:31.160Z,8.95
2022-09-28T16:18:02.658Z,8.92
2022-09-28T16:20:36.477Z,8.90
2022-09-28T16:23:15.078Z,8.88
2022-09-28T16:25:51.836Z,8.88
2022-09-28T16:28:48.841Z,8.85
2022-09-28T16:31:15.639Z,8.81
2022-09-28T16:34:10.835Z,8.73
2022-09-28T16:36:45.455Z,8.66
2022-09-28T16:39:13.554Z,8.58
2022-09-28T16:41:44.230Z,8.48
2022-09-28T16:44:19.213Z,8.43
2022-09-28T16:46:46.404Z,8.44
2022-09-28T16:49:19.018Z,8.40
2022-09-28T16:51:47.044Z,8.35
2022-09-28T16:54:36.453Z,8.27
2022-09-28T16:57:04.485Z,8.08
2022-09-28T16:59:31.881Z,8.05
2022-09-28T17:01:58.976Z,8.01
2022-09-28T17:04:26.417Z,7.96
2022-09-28T17:06:55.279Z,7.94
2022-09-28T17:09:22.931Z,7.90
2022-09-28T17:11:56.087Z,7.86
2022-09-28T17:14:23.709Z,7.81
2022-09-28T17:17:12.654Z,7.80
2022-09-28T17:19:40.682Z,7.77
2022-09-28T17:22:08.693Z,7.73
2022-09-28T17:24:35.408Z,7.61
2022-09-28T17:27:03.341Z,7.64
2022-09-28T17:29:30.384Z,7.63
2022-09-28T17:31:56.880Z,7.58
2022-09-28T17:34:23.841Z,7.54
2022-09-28T17:36:50.457Z,7.57
2022-09-28T17:39:19.201Z,7.60
2022-09-28T17:41:45.854Z,7.59
2022-09-28T17:44:16.418Z,7.60
2022-09-28T17:46:47.403Z,7.64
2022-09-28T17:49:14.614Z,7.64
2022-09-28T17:51:41.359Z,7.70
2022-09-28T17:54:08.717Z,7.71
2022-09-28T17:56:36.633Z,7.74
2022-09-28T17:59:06.187Z,7.75
2022-09-28T18:01:35.983Z,7.71
2022-09-28T18:04:05.122Z,7.72
2022-09-28T18:06:34.842Z,7.70
2022-09-28T18:09:05.238Z,7.69
2022-09-28T18:11:33.229Z,7.69
2022-09-28T18:14:00.064Z,7.69
2022-09-28T18:16:28.744Z,7.67
2022-09-28T18:18:55.594Z,7.69
2022-09-28T18:21:22.287Z,7.68
2022-09-28T18:23:48.868Z,7.66
2022-09-28T18:26:16.883Z,7.65
2022-09-28T18:28:43.506Z,7.61
2022-09-28T18:31:12.186Z,7.59
2022-09-28T18:33:39.303Z,7.59
2022-09-28T18:36:07.272Z,7.59
2022-09-28T18:38:37.911Z,7.58
2022-09-28T18:41:23.420Z,7.59
2022-09-28T18:43:50.664Z,7.60
2022-09-28T18:46:21.015Z,7.61
2022-09-28T18:48:47.852Z,7.61
2022-09-28T18:51:14.549Z,7.55
2022-09-28T18:53:41.168Z,7.56
2022-09-28T18:56:18.269Z,7.53
2022-09-28T18:58:45.781Z,7.52
2022-09-28T19:01:31.683Z,7.59
2022-09-28T19:04:00.404Z,7.58
2022-09-28T19:06:27.743Z,7.54
2022-09-28T19:08:55.826Z,7.58
2022-09-28T19:11:23.298Z,7.54
2022-09-28T19:13:50.442Z,7.49
2022-09-28T19:16:20.898Z,7.47
2022-09-28T19:18:48.614Z,7.50
2022-09-28T19:21:15.879Z,7.50
2022-09-28T19:23:48.927Z,7.51
2022-09-28T19:26:24.505Z,7.48
2022-09-28T19:28:51.264Z,7.48
2022-09-28T19:31:18.229Z,7.50
2022-09-28T19:33:48.194Z,7.48
2022-09-28T19:36:21.898Z,7.51
2022-09-28T19:38:48.565Z,7.53
2022-09-28T19:41:39.610Z,7.57
2022-09-28T19:44:29.965Z,7.56
2022-09-28T19:47:04.834Z,7.58
2022-09-28T19:49:36.989Z,7.56
2022-09-28T19:52:15.619Z,7.58
2022-09-28T19:54:44.575Z,7.55
2022-09-28T19:57:13.220Z,7.56
2022-09-28T19:59:39.808Z,7.53
2022-09-28T20:02:07.556Z,7.55
2022-09-28T20:04:34.201Z,7.54
2022-09-28T20:07:01.950Z,7.51
2022-09-28T20:09:28.825Z,7.51
2022-09-28T20:11:55.621Z,7.51
2022-09-28T20:14:24.500Z,7.53
2022-09-28T20:16:53.406Z,7.52
2022-09-28T20:19:21.714Z,7.49
2022-09-28T20:21:48.966Z,7.49
2022-09-28T20:24:17.123Z,7.45
2022-09-28T20:26:44.717Z,7.44
2022-09-28T20:29:11.840Z,7.41
2022-09-28T20:31:38.888Z,7.36
2022-09-28T20:34:06.547Z,7.31
2022-09-28T20:36:33.639Z,7.25
2022-09-28T20:39:04.384Z,7.23
2022-09-28T20:41:36.742Z,7.18
2022-09-28T20:44:06.189Z,7.16
2022-09-28T20:46:34.682Z,7.14
2022-09-28T20:49:01.664Z,7.09
2022-09-28T20:51:28.665Z,7.07
2022-09-28T20:53:57.048Z,7.08
